Aérodrome :
LOGIN :

S'inscrire | Disclaimer

   EN    FR    IT 

 










Légende :    VFR   VFR Marginal   IFR   IFR Intensif   IFR Très Intensif
Visi : 
Plafond : 
>= 8 km
>= 3000ft
5 à 8 km
1000 à 3000 ft
1500m à 5 km
500 à 1000 ft
800 à 1500m
200 à 500 ft
< 800m
< 200 ft
Symboles :   Orages  Brouillard  Fortes neiges  Fortes précipitations  Vent > 20 kt
SIGMETs :   Divers  Orages  Givrage  Turbulence  Onde Orograph.  Cendres Volcan.







- Altitude de l'aérodrome : 412 ft
- Code IATA : ORE
- Voir les cartes d'approche


LFOJ - Orleans

DERNIER METAR :
  • 161930Z AUTO 30005KT CAVOK 24/10 Q1014 NOSIG

METARs EXPIRÉS :
  • 161900Z AUTO 30007KT CAVOK 26/10 Q1013 NOSIG
  • 161830Z AUTO 30009KT CAVOK 28/09 Q1013 NOSIG
  • 161800Z AUTO 34008KT CAVOK 29/11 Q1013 NOSIG
  • 161730Z AUTO 33009KT CAVOK 29/11 Q1012 NOSIG
  • 161700Z AUTO 33009KT CAVOK 30/12 Q1012 TEMPO 30015G27KT 3000 TSRA BKN070CB

TAF TAF LFOJ
Valide du 16 à 15h jusqu'au 17 à 15h UTC


161400Z 1615/1715 34010KT CAVOK
PROB40
TEMPO 1615/1618 30015G27KT 3000 TSRA BKN070CB
Pas de NOTAMs connus pour ce terrain.
2 SIGMETs publiés pour la FIR Paris (LFFF) :
 
Orages noyés dans la masse
LFFF SIGMET 2 VALID 161800/162000 LFPW
LFFF PARIS FIR/UIR EMBD TS FCST WI N4700 E00300 - N4830 E00215 - N4830 E00330 - N4700 E00330 - N4700 E00300 TOP FL300 MOV E 10KT NC=
Orages noyés dans la masse
LFFF SIGMET 1 VALID 161800/162000 LFPW
LFFF PARIS FIR/UIR EMBD TS FCST WI N4715 E00030 - N4715 W00015 - N4745 W00015 - N4745 E00000 - N4715 E00030 TOP FL330 MOV E 15KT NC=



MET'MAP, la Météo Aéronautique d'un coup d'oeil ! - Copyright ORBIFLY Décembre 2007 - Disclaimer

ORBIFLY MET'MAP TEAM :

Programmation & Développement : Alexandra Zaïnal
Conception & Développement : Baudouin d'Aumeries
Co-Programmation & Développement : Marc-Olivier Méhu
Soutien technique & logistique : Manuel Goepfert

Contact : metmap@orbifly.com




SOURCES & CREDITS :

   NOAA